Emden Airport

EDWE · 下萨克森, 德国

罗盘
风向 的 风向 270° Emden Airport 7/25
风: 6 kt, 2 beaufort

6 kt

2 kt
改变
0 1.000 2.000 3.000 4.000 5.000
FEW 3.200 ft
METAR EDWE 070350Z AUTO 27006KT 9999 // FEW032/// 03/01 Q1013

METAR Emden Airport - EDWE/EME

Emden Airport是,德国中的小机场。 该机场有一条跑道: 7/25. 该领域的国际民航组织标志是EDWE 它的国际航空运输协会代码是EME.

这份报告是针对2022年12月7日 04:50, 当地时间在Emden Airport进行的。

机场观察

风向为270°,速度为6 kt。

可见度为10 km 或者更多。

有几云在3.200 ft的高度。 没有观察到天花板。

温度为3 °C,阵风为-2 °C。 露点为1 °C,相对湿度为87%。 海平面上的气压为1013 hPa (QNH)。

白天

今天,太阳从08:31升起,在16:13降落。 这适用于Emden Airport,世界夏令时可能有所不同。 当地时间与世界标准时间之间的时差为+1 小时。 当前,没有夏令时有效。

公司介绍

我们没有关于这个机场的公司信息。

体会

到Vliegles.nl去找飞行课程,跳伞和其他飞行体验。 浏览页面,了解Emden Airport附近所有可用的活动。 你也可以使用搜索功能来寻找你所在地附近的特定飞行课程、跳伞或其他飞行体验。

跑道

Id 标题 侧风 逆风 侧风 %
7/25 073°-253° 2 kt 6 kt 29 %

逆风成分最大的方向会被突出显示,并用于横风计算。 这并不一定意味着这个方向在使用。

乌云

3.200 ft FEW 几云

温度 & 天气

温度 3 °C
露点 1 °C
相对湿度 87%
风寒 -2 °C
Kp-index 2 (0-9)

白天

日出
08:31 (3:08)
中午
12:22
日落
16:13

小工具

你想在你的网站上有一个关于Emden Airport的当前航空天气(METAR)的小部件吗?

显示HTML代码

我们和第三方通过cookies跟踪您在我们网站上的互联网行为。如果你继续,我们认为你同意我们的饼干政策